createdAt,value
2017-02-26T00:00:32.977Z,956.30
2017-02-26T00:01:22.614Z,956.29
2017-02-26T00:02:32.747Z,956.30
2017-02-26T00:03:38.737Z,956.26
2017-02-26T00:04:32.771Z,956.22
2017-02-26T00:05:21.475Z,956.18
2017-02-26T00:06:19.773Z,956.21
2017-02-26T00:07:27.996Z,956.19
2017-02-26T00:08:23.301Z,956.18
2017-02-26T00:09:28.175Z,956.16
2017-02-26T00:10:26.654Z,956.21
2017-02-26T00:11:27.987Z,956.13
2017-02-26T00:12:23.866Z,956.13
2017-02-26T00:13:19.789Z,956.11
2017-02-26T00:14:22.893Z,956.14
2017-02-26T00:15:23.046Z,956.12
2017-02-26T00:16:21.464Z,956.09
2017-02-26T00:17:22.654Z,956.08
2017-02-26T00:18:19.717Z,956.05
2017-02-26T00:19:28.078Z,956.02
2017-02-26T00:20:27.435Z,955.99
2017-02-26T00:21:28.047Z,956.03
2017-02-26T00:22:24.161Z,955.99
2017-02-26T00:23:20.815Z,956.01
2017-02-26T00:24:23.174Z,955.99
2017-02-26T00:25:23.725Z,955.96
2017-02-26T00:26:27.888Z,955.97
2017-02-26T00:27:22.723Z,955.95
2017-02-26T00:28:22.930Z,955.90
2017-02-26T00:29:19.785Z,955.89
2017-02-26T00:30:33.737Z,955.87
2017-02-26T00:31:27.746Z,955.90
2017-02-26T00:32:22.495Z,955.86
2017-02-26T00:33:27.911Z,955.86
2017-02-26T00:34:27.629Z,955.90
2017-02-26T00:35:39.076Z,955.89
2017-02-26T00:36:23.039Z,955.85
2017-02-26T00:37:26.172Z,955.90
2017-02-26T00:38:23.439Z,955.88
2017-02-26T00:39:27.176Z,955.89
2017-02-26T00:40:32.554Z,955.89
2017-02-26T00:41:23.527Z,955.84
2017-02-26T00:42:32.726Z,955.88
2017-02-26T00:43:28.111Z,955.91
2017-02-26T00:44:23.234Z,955.82
2017-02-26T00:45:18.284Z,955.89
2017-02-26T00:46:23.724Z,955.90
2017-02-26T00:47:22.814Z,955.84
2017-02-26T00:48:23.605Z,955.87
2017-02-26T00:49:22.476Z,955.87
2017-02-26T00:50:16.722Z,955.80
2017-02-26T00:51:23.765Z,955.81
2017-02-26T00:52:23.544Z,955.82
2017-02-26T00:53:19.442Z,955.81
2017-02-26T00:54:31.673Z,955.82
2017-02-26T00:55:24.896Z,955.81
2017-02-26T00:56:28.316Z,955.73
2017-02-26T00:57:28.189Z,955.81
2017-02-26T00:58:32.488Z,955.80
2017-02-26T00:59:22.517Z,955.79
2017-02-26T01:00:28.067Z,955.81
2017-02-26T01:01:23.182Z,955.83
2017-02-26T01:02:21.141Z,955.81
2017-02-26T01:03:23.856Z,955.81
2017-02-26T01:04:19.854Z,955.83
2017-02-26T01:05:23.598Z,955.78
2017-02-26T01:06:26.934Z,955.83
2017-02-26T01:07:19.597Z,955.83
2017-02-26T01:08:23.793Z,955.81
2017-02-26T01:09:23.905Z,955.77
2017-02-26T01:10:23.931Z,955.79
2017-02-26T01:11:23.851Z,955.80
2017-02-26T01:12:20.881Z,955.83
2017-02-26T01:13:23.090Z,955.82
2017-02-26T01:14:20.556Z,955.79
2017-02-26T01:15:19.600Z,955.82
2017-02-26T01:16:26.857Z,955.73
2017-02-26T01:17:22.531Z,955.74
2017-02-26T01:18:20.596Z,955.71
2017-02-26T01:19:21.587Z,955.68
2017-02-26T01:20:22.493Z,955.70
2017-02-26T01:24:24.263Z,955.65
2017-02-26T01:25:22.400Z,955.62
2017-02-26T01:26:26.718Z,955.66
2017-02-26T01:27:28.230Z,955.68
2017-02-26T01:28:27.537Z,955.70
2017-02-26T01:29:23.191Z,955.69
2017-02-26T01:30:28.386Z,955.69
2017-02-26T01:31:23.539Z,955.68
2017-02-26T01:32:33.057Z,955.67
2017-02-26T01:33:17.472Z,955.67
2017-02-26T01:34:20.414Z,955.67
2017-02-26T01:35:22.059Z,955.66
2017-02-26T01:36:33.330Z,955.63
2017-02-26T01:37:32.272Z,955.62
2017-02-26T01:38:22.432Z,955.63
2017-02-26T01:39:23.926Z,955.57
2017-02-26T01:40:19.155Z,955.55
2017-02-26T01:41:23.779Z,955.61
2017-02-26T01:42:22.906Z,955.59
2017-02-26T01:43:20.823Z,955.61
2017-02-26T01:44:23.040Z,955.53
2017-02-26T01:45:23.919Z,955.54
2017-02-26T01:46:21.293Z,955.58
2017-02-26T01:47:27.426Z,955.56
2017-02-26T01:48:19.994Z,955.56
2017-02-26T01:49:23.526Z,955.52
2017-02-26T01:50:30.883Z,955.57
2017-02-26T01:51:26.268Z,955.52
2017-02-26T01:52:19.345Z,955.56
2017-02-26T01:53:26.745Z,955.57
2017-02-26T01:54:27.531Z,955.54
2017-02-26T01:55:22.614Z,955.53
2017-02-26T01:56:28.691Z,955.52
2017-02-26T01:57:28.225Z,955.55
2017-02-26T01:58:23.554Z,955.52
2017-02-26T01:59:22.208Z,955.51
2017-02-26T02:00:22.015Z,955.55
2017-02-26T02:01:22.606Z,955.53
2017-02-26T02:02:23.644Z,955.53
2017-02-26T02:03:32.266Z,955.54
2017-02-26T02:04:28.019Z,955.49
2017-02-26T02:05:32.581Z,955.51
2017-02-26T02:06:27.593Z,955.46
2017-02-26T02:07:22.638Z,955.49
2017-02-26T02:08:33.177Z,955.49
2017-02-26T02:09:22.446Z,955.51
2017-02-26T02:10:20.899Z,955.52
2017-02-26T02:11:23.668Z,955.61
2017-02-26T02:12:22.723Z,955.59
2017-02-26T02:13:22.621Z,955.58
2017-02-26T02:14:24.059Z,955.52
2017-02-26T02:15:23.343Z,955.54
2017-02-26T02:16:22.734Z,955.57
2017-02-26T02:17:22.326Z,955.58
2017-02-26T02:18:21.925Z,955.57
2017-02-26T02:19:27.353Z,955.61
2017-02-26T02:20:22.669Z,955.61
2017-02-26T02:21:20.769Z,955.63
2017-02-26T02:22:32.707Z,955.55
2017-02-26T02:23:32.199Z,955.60
2017-02-26T02:24:42.365Z,955.63
2017-02-26T02:25:37.573Z,955.63
2017-02-26T02:26:23.779Z,955.63
2017-02-26T02:27:32.372Z,955.60
2017-02-26T02:28:28.344Z,955.60
2017-02-26T02:29:22.423Z,955.62
2017-02-26T02:30:28.267Z,955.63
2017-02-26T02:31:22.539Z,955.64
2017-02-26T02:32:20.828Z,955.66
2017-02-26T02:33:22.350Z,955.62
2017-02-26T02:34:20.040Z,955.60
2017-02-26T02:35:19.585Z,955.60
2017-02-26T02:36:27.739Z,955.64
2017-02-26T02:37:23.162Z,955.60
2017-02-26T02:38:27.382Z,955.62
2017-02-26T02:39:27.439Z,955.63
2017-02-26T02:40:27.258Z,955.62
2017-02-26T02:41:27.406Z,955.62
2017-02-26T02:42:23.492Z,955.63
2017-02-26T02:43:22.515Z,955.57
2017-02-26T02:44:33.457Z,955.60
2017-02-26T02:45:19.165Z,955.62
2017-02-26T02:46:21.047Z,955.64
2017-02-26T02:47:21.036Z,955.63
2017-02-26T02:48:22.937Z,955.64
2017-02-26T02:49:23.056Z,955.61
2017-02-26T02:50:28.342Z,955.65
2017-02-26T02:51:20.841Z,955.54
2017-02-26T02:52:22.311Z,955.54
2017-02-26T02:53:25.387Z,955.52
2017-02-26T02:54:24.008Z,955.54
2017-02-26T02:55:19.671Z,955.53
2017-02-26T02:56:20.732Z,955.58
2017-02-26T02:57:23.170Z,955.58
2017-02-26T02:58:33.721Z,955.59
2017-02-26T02:59:24.173Z,955.57
2017-02-26T03:00:14.490Z,955.57
2017-02-26T03:01:26.610Z,955.56
2017-02-26T03:02:22.699Z,955.53
2017-02-26T03:03:37.959Z,955.55
2017-02-26T03:04:28.181Z,955.61
2017-02-26T03:05:23.207Z,955.56
2017-02-26T03:06:32.696Z,955.56
2017-02-26T03:07:23.115Z,955.57
2017-02-26T03:08:20.572Z,955.55
2017-02-26T03:09:27.847Z,955.52
2017-02-26T03:10:32.542Z,955.53
2017-02-26T03:11:22.271Z,955.50
2017-02-26T03:12:32.783Z,955.53
2017-02-26T03:13:23.049Z,955.50
2017-02-26T03:14:39.303Z,955.48
2017-02-26T03:15:23.985Z,955.49
2017-02-26T03:16:23.195Z,955.54
2017-02-26T03:17:19.807Z,955.54
2017-02-26T03:18:21.365Z,955.53
2017-02-26T03:19:32.180Z,955.53
2017-02-26T03:20:32.750Z,955.56
2017-02-26T03:21:22.846Z,955.53
2017-02-26T03:22:32.611Z,955.58
2017-02-26T03:23:22.495Z,955.55
2017-02-26T03:24:27.602Z,955.56
2017-02-26T03:25:21.717Z,955.59
2017-02-26T03:26:23.116Z,955.66
2017-02-26T03:27:27.947Z,955.63
2017-02-26T03:28:27.394Z,955.63
2017-02-26T03:29:23.241Z,955.60
2017-02-26T03:30:23.679Z,955.63
2017-02-26T03:31:23.646Z,955.58
2017-02-26T03:32:27.362Z,955.62
2017-02-26T03:33:34.300Z,955.59
2017-02-26T03:34:23.398Z,955.60
2017-02-26T03:35:21.451Z,955.63
2017-02-26T03:36:27.607Z,955.62
2017-02-26T03:37:27.789Z,955.61
2017-02-26T03:39:27.323Z,955.58
2017-02-26T03:40:27.634Z,955.58
2017-02-26T03:41:32.591Z,955.60
2017-02-26T03:42:22.979Z,955.62
2017-02-26T03:43:23.170Z,955.63
2017-02-26T03:44:20.460Z,955.56
2017-02-26T03:45:27.694Z,955.60
2017-02-26T03:46:32.939Z,955.57
2017-02-26T03:47:23.072Z,955.55
2017-02-26T03:48:23.216Z,955.56
2017-02-26T03:49:33.408Z,955.58
2017-02-26T03:50:24.027Z,955.56
2017-02-26T03:51:27.442Z,955.53
2017-02-26T03:52:27.435Z,955.55
2017-02-26T03:53:32.999Z,955.51
2017-02-26T03:54:22.739Z,955.54
2017-02-26T03:55:42.684Z,955.48
2017-02-26T03:56:25.775Z,955.55
2017-02-26T03:57:27.332Z,955.51
2017-02-26T03:58:22.418Z,955.51
2017-02-26T03:59:26.857Z,955.51
2017-02-26T04:00:21.731Z,955.46
2017-02-26T04:01:19.743Z,955.43
2017-02-26T04:02:20.832Z,955.43
2017-02-26T04:03:21.518Z,955.49
2017-02-26T04:04:33.505Z,955.37
2017-02-26T04:05:23.256Z,955.37
2017-02-26T04:06:18.851Z,955.35
2017-02-26T04:07:19.924Z,955.33
2017-02-26T04:08:22.348Z,955.30
2017-02-26T04:09:32.471Z,955.29
2017-02-26T04:10:27.638Z,955.33
2017-02-26T04:11:27.580Z,955.30
2017-02-26T04:12:27.774Z,955.39
2017-02-26T04:13:23.857Z,955.34
2017-02-26T04:14:27.482Z,955.30
2017-02-26T04:15:27.486Z,955.34
2017-02-26T04:16:23.090Z,955.27
2017-02-26T04:17:23.226Z,955.31
2017-02-26T04:18:17.700Z,955.30
2017-02-26T04:19:22.256Z,955.30
2017-02-26T04:20:28.054Z,955.31
2017-02-26T04:21:27.208Z,955.34
2017-02-26T04:22:23.096Z,955.35
2017-02-26T04:23:23.684Z,955.39
2017-02-26T04:24:26.572Z,955.42
2017-02-26T04:25:28.109Z,955.39
2017-02-26T04:26:32.625Z,955.40
2017-02-26T04:27:27.896Z,955.38
2017-02-26T04:28:23.817Z,955.33
2017-02-26T04:29:22.977Z,955.26
2017-02-26T04:30:25.645Z,955.34
2017-02-26T04:31:23.748Z,955.30
2017-02-26T04:32:23.873Z,955.29
2017-02-26T04:33:33.203Z,955.26
2017-02-26T04:34:22.414Z,955.30
2017-02-26T04:35:19.481Z,955.31
2017-02-26T04:36:23.205Z,955.24
2017-02-26T04:37:21.278Z,955.28
2017-02-26T04:38:21.146Z,955.29
2017-02-26T04:39:32.105Z,955.28
2017-02-26T04:40:22.286Z,955.30
2017-02-26T04:41:27.336Z,955.32
2017-02-26T04:42:26.213Z,955.28
2017-02-26T04:43:21.642Z,955.35
2017-02-26T04:44:20.160Z,955.32
2017-02-26T04:45:23.066Z,955.30
2017-02-26T04:46:23.000Z,955.33
2017-02-26T04:47:20.815Z,955.34
2017-02-26T04:48:23.093Z,955.30
2017-02-26T04:49:27.561Z,955.34
2017-02-26T04:50:27.419Z,955.29
2017-02-26T04:51:21.461Z,955.32
2017-02-26T04:52:24.236Z,955.29
2017-02-26T04:53:18.416Z,955.30
2017-02-26T04:54:19.548Z,955.27
2017-02-26T04:55:27.773Z,955.29
2017-02-26T04:56:23.927Z,955.28
2017-02-26T04:57:28.328Z,955.27
2017-02-26T04:58:18.450Z,955.32
2017-02-26T04:59:18.473Z,955.28
2017-02-26T05:00:22.620Z,955.29
2017-02-26T05:01:15.794Z,955.32
2017-02-26T05:02:28.685Z,955.29
2017-02-26T05:03:22.612Z,955.34
2017-02-26T05:04:22.456Z,955.32
2017-02-26T05:05:22.727Z,955.31
2017-02-26T05:06:22.753Z,955.31
2017-02-26T05:07:32.547Z,955.30
2017-02-26T05:08:27.380Z,955.25
2017-02-26T05:09:26.920Z,955.29
2017-02-26T05:10:21.764Z,955.25
2017-02-26T05:11:28.065Z,955.23
2017-02-26T05:12:27.524Z,955.23
2017-02-26T05:13:27.421Z,955.26
2017-02-26T05:14:20.296Z,955.29
2017-02-26T05:15:27.605Z,955.25
2017-02-26T05:16:31.473Z,955.25
2017-02-26T05:17:20.968Z,955.26
2017-02-26T05:18:23.897Z,955.21
2017-02-26T05:19:21.951Z,955.24
2017-02-26T05:20:23.710Z,955.23
2017-02-26T05:21:24.460Z,955.22
2017-02-26T05:22:21.172Z,955.22
2017-02-26T05:23:27.455Z,955.22
2017-02-26T05:24:27.748Z,955.23
2017-02-26T05:26:26.440Z,955.19
2017-02-26T05:27:23.048Z,955.21
2017-02-26T05:28:31.568Z,955.23
2017-02-26T05:29:30.179Z,955.21
2017-02-26T05:30:22.312Z,955.27
2017-02-26T05:31:20.712Z,955.22
2017-02-26T05:32:20.152Z,955.24
2017-02-26T05:33:28.015Z,955.22
2017-02-26T05:34:24.487Z,955.20
2017-02-26T05:35:21.093Z,955.21
2017-02-26T05:36:27.518Z,955.25
2017-02-26T05:37:22.687Z,955.20
2017-02-26T05:38:23.931Z,955.21
2017-02-26T05:39:24.059Z,955.21
2017-02-26T05:40:23.107Z,955.23
2017-02-26T05:41:20.331Z,955.24
2017-02-26T05:42:21.424Z,955.21
2017-02-26T05:43:24.026Z,955.21
2017-02-26T05:44:20.273Z,955.21
2017-02-26T05:45:25.512Z,955.28
2017-02-26T05:46:22.579Z,955.22
2017-02-26T05:47:20.402Z,955.25
2017-02-26T05:48:17.450Z,955.25
2017-02-26T05:49:20.749Z,955.25
2017-02-26T05:50:23.900Z,955.26
2017-02-26T05:51:24.015Z,955.27
2017-02-26T05:52:19.682Z,955.25
2017-02-26T05:53:20.770Z,955.28
2017-02-26T05:54:34.122Z,955.28
2017-02-26T05:55:23.832Z,955.30
2017-02-26T05:56:19.123Z,955.34
2017-02-26T05:57:27.066Z,955.31
2017-02-26T05:58:23.012Z,955.36
2017-02-26T05:59:24.667Z,955.35
2017-02-26T06:00:22.770Z,955.39
2017-02-26T06:01:21.432Z,955.35
2017-02-26T06:02:25.902Z,955.38
2017-02-26T06:03:33.667Z,955.35
2017-02-26T06:04:38.055Z,955.34
2017-02-26T06:05:23.157Z,955.32
2017-02-26T06:06:22.799Z,955.28
2017-02-26T06:07:22.997Z,955.32
2017-02-26T06:08:17.772Z,955.31
2017-02-26T06:09:27.725Z,955.32
2017-02-26T06:10:22.884Z,955.30
2017-02-26T06:11:27.487Z,955.29
2017-02-26T06:12:26.916Z,955.31
2017-02-26T06:13:22.982Z,955.34
2017-02-26T06:14:21.487Z,955.38
2017-02-26T06:15:23.315Z,955.34
2017-02-26T06:16:28.340Z,955.38
2017-02-26T06:17:28.487Z,955.37
2017-02-26T06:18:27.589Z,955.40
2017-02-26T06:19:22.505Z,955.42
2017-02-26T06:20:23.058Z,955.41
2017-02-26T06:21:18.130Z,955.42
2017-02-26T06:22:22.803Z,955.40
2017-02-26T06:23:27.210Z,955.44
2017-02-26T06:24:23.403Z,955.42
2017-02-26T06:25:23.381Z,955.42
2017-02-26T06:26:32.874Z,955.46
2017-02-26T06:27:27.249Z,955.47
2017-02-26T06:28:25.947Z,955.48
2017-02-26T06:29:21.513Z,955.49
2017-02-26T06:30:18.568Z,955.49
2017-02-26T06:31:22.705Z,955.53
2017-02-26T06:32:22.941Z,955.55
2017-02-26T06:33:24.008Z,955.58
2017-02-26T06:34:24.218Z,955.55
2017-02-26T06:35:21.985Z,955.60
2017-02-26T06:36:28.281Z,955.59
2017-02-26T06:37:20.444Z,955.59
2017-02-26T06:38:27.605Z,955.68
2017-02-26T06:39:23.704Z,955.62
2017-02-26T06:40:26.357Z,955.62
2017-02-26T06:41:20.113Z,955.68
2017-02-26T06:42:26.358Z,955.64
2017-02-26T06:43:23.606Z,955.63
2017-02-26T06:44:21.936Z,955.68
2017-02-26T06:45:18.990Z,955.65
2017-02-26T06:46:28.132Z,955.68
2017-02-26T06:47:22.835Z,955.72
2017-02-26T06:48:26.461Z,955.68
2017-02-26T06:49:23.568Z,955.70
2017-02-26T06:50:19.522Z,955.70
2017-02-26T06:51:23.662Z,955.66
2017-02-26T06:52:24.340Z,955.72
2017-02-26T06:53:23.299Z,955.73
2017-02-26T06:54:20.030Z,955.69
2017-02-26T06:55:27.061Z,955.76
2017-02-26T06:56:26.389Z,955.72
2017-02-26T06:57:23.142Z,955.70
2017-02-26T06:58:26.331Z,955.70
2017-02-26T06:59:28.064Z,955.66
2017-02-26T07:00:18.713Z,955.72
2017-02-26T07:01:28.660Z,955.71
2017-02-26T07:02:20.198Z,955.76
2017-02-26T07:03:19.477Z,955.73
2017-02-26T07:04:21.945Z,955.76
2017-02-26T07:05:27.039Z,955.78
2017-02-26T07:06:20.915Z,955.75
2017-02-26T07:07:23.625Z,955.75
2017-02-26T07:08:23.768Z,955.69
2017-02-26T07:09:19.584Z,955.71
2017-02-26T07:10:22.753Z,955.76
2017-02-26T07:11:22.647Z,955.76
2017-02-26T07:12:20.248Z,955.74
2017-02-26T07:13:21.489Z,955.72
2017-02-26T07:14:21.097Z,955.72
2017-02-26T07:15:23.219Z,955.73
2017-02-26T07:16:23.338Z,955.77
2017-02-26T07:17:16.258Z,955.72
2017-02-26T07:18:26.302Z,955.70
2017-02-26T07:19:33.041Z,955.66
2017-02-26T07:20:24.093Z,955.71
2017-02-26T07:21:21.744Z,955.73
2017-02-26T07:22:23.867Z,955.73
2017-02-26T07:23:21.777Z,955.75
2017-02-26T07:24:22.886Z,955.71
2017-02-26T07:25:19.115Z,955.72
2017-02-26T07:26:23.849Z,955.70
2017-02-26T07:27:17.957Z,955.67
2017-02-26T07:28:22.851Z,955.69
2017-02-26T07:29:23.914Z,955.65
2017-02-26T07:30:22.305Z,955.68
2017-02-26T07:31:22.986Z,955.63
2017-02-26T07:32:23.080Z,955.67
2017-02-26T07:33:23.221Z,955.71
2017-02-26T07:34:22.388Z,955.68
2017-02-26T07:35:24.090Z,955.67
2017-02-26T07:36:27.752Z,955.64
2017-02-26T07:37:23.956Z,955.63
2017-02-26T07:38:13.993Z,955.65
2017-02-26T07:39:23.635Z,955.61
2017-02-26T07:40:35.473Z,955.62
2017-02-26T07:41:18.948Z,955.64
2017-02-26T07:42:20.554Z,955.59
2017-02-26T07:43:26.841Z,955.60
2017-02-26T07:44:22.078Z,955.56
2017-02-26T07:45:21.544Z,955.60
2017-02-26T07:46:22.298Z,955.60
2017-02-26T07:47:18.387Z,955.65
2017-02-26T07:48:23.653Z,955.62
2017-02-26T07:49:19.360Z,955.65
2017-02-26T07:50:27.772Z,955.72
2017-02-26T07:51:27.895Z,955.67
2017-02-26T07:52:23.279Z,955.68
2017-02-26T07:53:25.797Z,955.70
2017-02-26T07:54:22.935Z,955.69
2017-02-26T07:55:19.055Z,955.69
2017-02-26T07:56:27.382Z,955.74
2017-02-26T07:57:27.528Z,955.74
2017-02-26T07:58:22.883Z,955.74
2017-02-26T07:59:33.095Z,955.74
2017-02-26T08:00:24.735Z,955.79
2017-02-26T08:01:23.823Z,955.83
2017-02-26T08:02:19.430Z,955.82
2017-02-26T08:03:22.555Z,955.82
2017-02-26T08:04:21.062Z,955.81
2017-02-26T08:05:17.172Z,955.89
2017-02-26T08:06:37.132Z,955.84
2017-02-26T08:07:24.147Z,955.89
2017-02-26T08:08:19.716Z,955.88
2017-02-26T08:09:22.624Z,955.91
2017-02-26T08:10:22.378Z,955.90
2017-02-26T08:11:23.154Z,955.89
2017-02-26T08:12:17.172Z,955.90
2017-02-26T08:13:23.293Z,955.90
2017-02-26T08:14:26.273Z,955.88
2017-02-26T08:15:27.132Z,955.92
2017-02-26T08:16:27.557Z,955.91
2017-02-26T08:17:22.743Z,955.92
2017-02-26T08:18:27.861Z,955.94
2017-02-26T08:20:27.891Z,955.92
2017-02-26T08:21:28.095Z,955.93
2017-02-26T08:22:27.488Z,955.95
2017-02-26T08:23:22.329Z,955.98
2017-02-26T08:24:26.448Z,955.88
2017-02-26T08:25:27.541Z,956.02
2017-02-26T08:26:24.164Z,955.95
2017-02-26T08:28:22.476Z,955.95
2017-02-26T08:29:18.570Z,956.00
2017-02-26T08:30:22.713Z,956.06
2017-02-26T08:31:35.057Z,956.02
2017-02-26T08:32:32.179Z,955.99
2017-02-26T08:33:17.093Z,956.01
2017-02-26T08:34:19.970Z,956.05
2017-02-26T08:35:31.973Z,955.99
2017-02-26T08:36:31.751Z,956.08
2017-02-26T08:37:27.538Z,955.99
2017-02-26T08:38:27.102Z,955.97
2017-02-26T08:39:33.263Z,956.01
2017-02-26T08:40:20.146Z,956.04
2017-02-26T08:41:24.233Z,956.09
2017-02-26T08:42:32.508Z,956.04
2017-02-26T08:43:32.559Z,956.01
2017-02-26T08:44:21.275Z,955.98
2017-02-26T08:45:27.144Z,955.98
2017-02-26T08:46:25.228Z,956.02
2017-02-26T08:47:23.046Z,956.02
2017-02-26T08:48:28.836Z,956.00
2017-02-26T08:49:26.901Z,956.03
2017-02-26T08:51:22.619Z,956.11
2017-02-26T08:53:21.908Z,956.10
2017-02-26T08:54:19.865Z,956.05
2017-02-26T08:55:26.924Z,956.12
2017-02-26T08:56:20.225Z,956.10
2017-02-26T08:57:32.497Z,956.12
2017-02-26T08:58:26.456Z,956.11
2017-02-26T08:59:17.466Z,956.13
2017-02-26T09:00:17.591Z,956.12
2017-02-26T09:01:22.133Z,956.17
2017-02-26T09:02:27.577Z,956.16
2017-02-26T09:03:12.159Z,956.14
2017-02-26T09:04:22.493Z,956.14
2017-02-26T09:05:27.679Z,956.18
2017-02-26T09:06:22.750Z,956.22
2017-02-26T09:07:19.409Z,956.18
2017-02-26T09:08:22.056Z,956.20
2017-02-26T09:09:17.025Z,956.24
2017-02-26T09:10:27.751Z,956.24
2017-02-26T09:11:27.865Z,956.27
2017-02-26T09:12:27.043Z,956.27
2017-02-26T09:13:27.617Z,956.28
2017-02-26T09:14:21.988Z,956.27
2017-02-26T09:15:24.787Z,956.27
2017-02-26T09:17:28.229Z,956.29
2017-02-26T09:18:22.492Z,956.26
2017-02-26T09:20:17.934Z,956.36
2017-02-26T09:21:22.228Z,956.35
2017-02-26T09:22:21.909Z,956.34
2017-02-26T09:23:21.392Z,956.40
2017-02-26T09:24:22.530Z,956.42
2017-02-26T09:25:27.767Z,956.41
2017-02-26T09:26:16.289Z,956.38
2017-02-26T09:27:19.227Z,956.33
2017-02-26T09:28:18.528Z,956.39
2017-02-26T09:29:21.306Z,956.46
2017-02-26T09:30:12.187Z,956.43
2017-02-26T09:32:20.295Z,956.38
2017-02-26T09:33:15.460Z,956.39
2017-02-26T09:34:33.713Z,956.40
2017-02-26T09:35:20.788Z,956.38
2017-02-26T09:36:22.090Z,956.34
2017-02-26T09:37:22.533Z,956.32
2017-02-26T09:39:27.249Z,956.27
2017-02-26T09:40:27.979Z,956.28
2017-02-26T09:43:24.875Z,956.35
2017-02-26T09:44:23.100Z,956.40
2017-02-26T09:48:20.723Z,956.35
2017-02-26T09:49:27.302Z,956.37
2017-02-26T09:50:26.477Z,956.35
2017-02-26T09:52:18.210Z,956.28
2017-02-26T09:53:26.501Z,956.29
2017-02-26T09:54:28.450Z,956.34
2017-02-26T09:55:21.551Z,956.27
2017-02-26T09:56:17.697Z,956.30
2017-02-26T09:57:19.877Z,956.29
2017-02-26T09:58:20.160Z,956.28
2017-02-26T09:59:22.090Z,956.33
2017-02-26T10:00:21.290Z,956.28
2017-02-26T10:01:23.047Z,956.25
2017-02-26T10:03:23.073Z,956.30
2017-02-26T10:06:27.403Z,956.29
2017-02-26T10:07:32.317Z,956.26
2017-02-26T10:09:15.419Z,956.27
2017-02-26T10:10:27.057Z,956.26
2017-02-26T10:11:29.283Z,956.20
2017-02-26T10:13:25.927Z,956.23
2017-02-26T10:14:26.998Z,956.23
2017-02-26T10:15:28.207Z,956.18
2017-02-26T10:16:32.773Z,956.16
2017-02-26T10:17:21.763Z,956.20
2017-02-26T10:18:36.820Z,956.15
2017-02-26T10:19:22.880Z,956.22
2017-02-26T10:20:24.517Z,956.17
2017-02-26T10:21:18.906Z,956.18
2017-02-26T10:22:26.751Z,956.12
2017-02-26T10:23:17.239Z,956.12
2017-02-26T10:24:22.196Z,956.15
2017-02-26T10:25:20.962Z,956.11
2017-02-26T10:27:28.952Z,956.03
2017-02-26T10:30:39.036Z,956.06
2017-02-26T10:32:20.163Z,956.04
2017-02-26T10:33:32.712Z,955.97
2017-02-26T10:34:19.221Z,956.02
2017-02-26T10:35:22.082Z,956.04
2017-02-26T10:36:25.893Z,956.04
2017-02-26T10:37:23.109Z,956.03
2017-02-26T10:38:23.203Z,956.00
2017-02-26T10:39:22.446Z,955.96
2017-02-26T10:40:26.202Z,955.91
2017-02-26T10:41:21.927Z,955.89
2017-02-26T10:42:22.430Z,955.86
2017-02-26T10:43:36.593Z,955.84
2017-02-26T10:44:27.130Z,955.73
2017-02-26T10:45:20.104Z,955.71
2017-02-26T10:46:27.855Z,955.74
2017-02-26T10:47:28.365Z,955.76
2017-02-26T10:48:28.172Z,955.74
2017-02-26T10:49:27.513Z,955.71
2017-02-26T10:50:27.421Z,955.69
2017-02-26T10:51:22.584Z,955.69
2017-02-26T10:52:22.196Z,955.71
2017-02-26T10:53:23.224Z,955.66
2017-02-26T10:54:27.494Z,955.67
2017-02-26T10:55:27.929Z,955.69
2017-02-26T10:56:22.855Z,955.62
2017-02-26T10:57:27.663Z,955.58
2017-02-26T10:58:22.965Z,955.57
2017-02-26T10:59:23.945Z,955.59
2017-02-26T11:00:19.192Z,955.59
2017-02-26T11:01:39.717Z,955.49
2017-02-26T11:02:18.431Z,955.50
2017-02-26T11:03:26.781Z,955.40
2017-02-26T11:04:27.903Z,955.42
2017-02-26T11:05:22.980Z,955.42
2017-02-26T11:06:33.446Z,955.42
2017-02-26T11:07:32.311Z,955.38
2017-02-26T11:08:21.762Z,955.40
2017-02-26T11:09:18.727Z,955.40
2017-02-26T11:10:22.997Z,955.37
2017-02-26T11:11:23.104Z,955.37
2017-02-26T11:12:23.206Z,955.38
2017-02-26T11:13:22.244Z,955.39
2017-02-26T11:14:16.845Z,955.34
2017-02-26T11:15:23.273Z,955.30
2017-02-26T11:16:27.394Z,955.30
2017-02-26T11:17:18.623Z,955.23
2017-02-26T11:18:23.253Z,955.23
2017-02-26T11:19:27.347Z,955.25
2017-02-26T11:20:20.579Z,955.23
2017-02-26T11:21:24.180Z,955.15
2017-02-26T11:22:22.963Z,955.18
2017-02-26T11:23:13.451Z,955.18
2017-02-26T11:24:22.623Z,955.15
2017-02-26T11:25:17.652Z,955.13
2017-02-26T11:26:32.731Z,955.13
2017-02-26T11:27:22.691Z,955.07
2017-02-26T11:28:23.730Z,955.05
2017-02-26T11:29:20.960Z,955.09
2017-02-26T11:30:27.732Z,955.07
2017-02-26T11:31:27.766Z,955.07
2017-02-26T11:32:27.902Z,955.05
2017-02-26T11:33:23.126Z,955.03
2017-02-26T11:34:18.230Z,955.06
2017-02-26T11:35:26.236Z,955.08
2017-02-26T11:36:38.003Z,954.92
2017-02-26T11:37:23.985Z,954.91
2017-02-26T11:38:26.999Z,954.89
2017-02-26T11:39:22.918Z,954.86
2017-02-26T11:40:22.781Z,954.84
2017-02-26T11:41:26.794Z,954.83
2017-02-26T11:42:28.012Z,954.79
2017-02-26T11:43:22.359Z,954.82
2017-02-26T11:44:21.506Z,954.77
2017-02-26T11:45:33.007Z,954.80
2017-02-26T11:46:23.203Z,954.73
2017-02-26T11:47:27.908Z,954.73
2017-02-26T11:48:22.761Z,954.67
2017-02-26T11:49:19.625Z,954.70
2017-02-26T11:50:22.814Z,954.65
2017-02-26T11:51:21.046Z,954.65
2017-02-26T11:52:28.127Z,954.66
2017-02-26T11:53:27.650Z,954.66
2017-02-26T11:54:22.855Z,954.64
2017-02-26T11:55:23.031Z,954.56
2017-02-26T11:56:23.038Z,954.55
2017-02-26T11:57:23.122Z,954.60
2017-02-26T11:59:19.545Z,954.50
2017-02-26T12:00:19.620Z,954.49
2017-02-26T12:01:25.278Z,954.48
2017-02-26T12:02:32.741Z,954.46
2017-02-26T12:03:27.051Z,954.50
2017-02-26T12:04:27.412Z,954.50
2017-02-26T12:05:17.937Z,954.50
2017-02-26T12:06:22.341Z,954.50
2017-02-26T12:07:24.415Z,954.45
2017-02-26T12:08:22.691Z,954.44
2017-02-26T12:09:19.392Z,954.43
2017-02-26T12:10:23.155Z,954.45
2017-02-26T12:11:21.503Z,954.41
2017-02-26T12:12:22.983Z,954.40
2017-02-26T12:13:19.396Z,954.41
2017-02-26T12:14:21.113Z,954.38
2017-02-26T12:15:21.446Z,954.40
2017-02-26T12:16:29.827Z,954.40
2017-02-26T12:17:21.048Z,954.39
2017-02-26T12:18:20.586Z,954.42
2017-02-26T12:19:20.300Z,954.42
2017-02-26T12:20:22.953Z,954.45
2017-02-26T12:21:27.463Z,954.46
2017-02-26T12:22:24.118Z,954.55
2017-02-26T12:23:26.475Z,954.53
2017-02-26T12:24:17.095Z,954.50
2017-02-26T12:25:28.090Z,954.50
2017-02-26T12:26:19.029Z,954.52
2017-02-26T12:27:25.157Z,954.48
2017-02-26T12:28:27.274Z,954.53
2017-02-26T12:29:32.495Z,954.51
2017-02-26T12:30:28.088Z,954.48
2017-02-26T12:31:22.321Z,954.43
2017-02-26T12:33:31.084Z,954.42
2017-02-26T12:34:23.074Z,954.44
2017-02-26T12:35:21.463Z,954.50
2017-02-26T12:42:22.344Z,954.38
2017-02-26T12:43:24.429Z,954.36
2017-02-26T12:45:27.333Z,954.38
2017-02-26T12:46:31.606Z,954.37
2017-02-26T12:47:23.079Z,954.40
2017-02-26T12:48:20.721Z,954.42
2017-02-26T12:49:23.380Z,954.35
2017-02-26T12:50:18.549Z,954.35
2017-02-26T12:51:28.325Z,954.34
2017-02-26T12:52:27.296Z,954.34
2017-02-26T12:54:19.616Z,954.29
2017-02-26T12:55:23.379Z,954.30
2017-02-26T12:56:28.202Z,954.31
2017-02-26T12:57:27.656Z,954.27
2017-02-26T12:58:23.780Z,954.34
2017-02-26T12:59:21.905Z,954.22
2017-02-26T13:00:22.484Z,954.25
2017-02-26T13:05:26.734Z,954.18
2017-02-26T13:06:32.763Z,954.20
2017-02-26T13:07:21.262Z,954.13
2017-02-26T13:08:32.346Z,954.18
2017-02-26T13:09:38.426Z,954.19
2017-02-26T13:10:29.011Z,954.19